Station History

Weather Underground - logo

Station Historical Data
 
Daily Summary for January 21, 2019 Units:  English    Metric   Both
« Previous Day
Next Day »
Daily Weekly Monthly Yearly Custom
  Current: High: Low: Average:
Temperature: 52.4 °F 55.1 °F 41.0 °F 48.5 °F
Dew Point: 44.7 °F 46.8 °F 39.7 °F 44 °F
Humidity: 75 % 97 % 66 % 85 %
Wind Speed: 0.0 mph 8.1 mph 0.0 mph 1.7 mph
Wind Gust: 0.0 mph 4.6 mph - -
Wind:Calm - - WNW
Pressure: 30.19 in 30.23 in 30.05 in -
Precipitation: 0.11 in      
Historical Graphs
 
 
Tabular Data for January 21, 2019
Time Temperature Dew Point Pressure Wind Wind Speed Wind Gust Humidity Rainfall Rate (Hourly)
00:00 49.0 °F 46.8 °F 30.06 in NNW 2.3 mph 1.0 mph 92 % 0.00 in
00:05 49.0 °F 46.8 °F 30.06 in NW 3.5 mph 1.3 mph 92 % 0.01 in
00:10 48.8 °F 46.6 °F 30.05 in NW 6.0 mph 3.6 mph 92 % 0.02 in
00:15 48.7 °F 46.2 °F 30.05 in NW 2.3 mph 1.1 mph 91 % 0.02 in
00:20 48.6 °F 45.8 °F 30.06 in NW 4.6 mph 2.6 mph 90 % 0.02 in
00:25 48.5 °F 45.7 °F 30.06 in North 3.5 mph 1.6 mph 90 % 0.02 in
00:30 48.5 °F 45.7 °F 30.07 in NW 3.5 mph 1.8 mph 90 % 0.02 in
00:35 48.4 °F 45.6 °F 30.07 in North 4.6 mph 3.1 mph 90 % 0.02 in
00:40 48.3 °F 45.5 °F 30.07 in NNW 1.2 mph 0.6 mph 90 % 0.02 in
00:45 48.1 °F 45.3 °F 30.07 in NW 2.3 mph 0.6 mph 90 % 0.02 in
00:50 48.0 °F 45.5 °F 30.07 in NW 3.5 mph 1.0 mph 91 % 0.02 in
00:55 47.9 °F 45.4 °F 30.07 in Calm     91 % 0.02 in
01:00 47.8 °F 45.3 °F 30.08 in NNW 1.2 mph 0.2 mph 91 % 0.02 in
01:05 47.8 °F 45.6 °F 30.07 in NW 2.3 mph 0.3 mph 92 % 0.01 in
01:10 47.7 °F 45.5 °F 30.07 in Calm     92 % 0.00 in
01:15 47.7 °F 45.5 °F 30.08 in Calm     92 % 0.00 in
01:20 47.7 °F 45.5 °F 30.08 in WNW 1.2 mph 0.1 mph 92 % 0.00 in
01:25 47.6 °F 45.4 °F 30.08 in Calm     92 % 0.00 in
01:30 47.5 °F 45.3 °F 30.08 in Calm     92 % 0.00 in
01:35 47.4 °F 45.2 °F 30.08 in Calm     92 % 0.00 in
01:40 47.4 °F 45.5 °F 30.07 in Calm     93 % 0.00 in
01:45 47.3 °F 45.4 °F 30.08 in Calm     93 % 0.00 in
01:50 47.3 °F 45.4 °F 30.08 in Calm     93 % 0.00 in
01:55 47.3 °F 45.4 °F 30.08 in Calm     93 % 0.00 in
02:00 47.3 °F 45.4 °F 30.08 in WNW 1.2 mph 0.1 mph 93 % 0.00 in
02:05 47.3 °F 45.4 °F 30.09 in Calm     93 % 0.00 in
02:10 47.2 °F 45.3 °F 30.09 in Calm     93 % 0.00 in
02:15 47.3 °F 45.4 °F 30.09 in Calm     93 % 0.00 in
02:20 47.2 °F 45.6 °F 30.09 in Calm     94 % 0.00 in
02:25 47.3 °F 45.7 °F 30.10 in Calm     94 % 0.00 in
02:30 47.3 °F 45.7 °F 30.10 in Calm     94 % 0.00 in
02:35 47.2 °F 45.6 °F 30.09 in Calm     94 % 0.00 in
02:40 47.1 °F 45.5 °F 30.10 in Calm     94 % 0.00 in
02:45 46.9 °F 45.3 °F 30.10 in Calm     94 % 0.00 in
02:50 46.8 °F 45.2 °F 30.10 in Calm     94 % 0.00 in
02:55 46.7 °F 45.1 °F 30.10 in Calm     94 % 0.00 in
03:00 46.5 °F 44.9 °F 30.10 in Calm     94 % 0.00 in
03:05 46.3 °F 44.7 °F 30.10 in Calm     94 % 0.00 in
03:10 46.2 °F 44.6 °F 30.10 in Calm     94 % 0.00 in
03:15 46.1 °F 44.5 °F 30.10 in Calm     94 % 0.00 in
03:20 46.0 °F 44.6 °F 30.10 in Calm     95 % 0.00 in
03:25 45.9 °F 44.5 °F 30.11 in Calm     95 % 0.00 in
03:30 45.8 °F 44.4 °F 30.11 in Calm     95 % 0.00 in
03:35 45.7 °F 44.4 °F 30.11 in NW 1.2 mph 0.7 mph 95 % 0.00 in
03:40 45.8 °F 44.4 °F 30.11 in NNW 2.3 mph 0.3 mph 95 % 0.00 in
03:45 46.0 °F 44.6 °F 30.12 in NW 2.3 mph 0.5 mph 95 % 0.00 in
03:50 46.1 °F 44.7 °F 30.12 in NNW 2.3 mph 0.6 mph 95 % 0.00 in
03:55 46.1 °F 44.5 °F 30.12 in NNW 1.2 mph 0.2 mph 94 % 0.00 in
04:00 46.0 °F 44.4 °F 30.12 in NNW 1.2 mph   94 % 0.00 in
04:05 45.9 °F 44.0 °F 30.12 in Calm     93 % 0.00 in
04:10 45.7 °F 43.8 °F 30.12 in Calm     93 % 0.00 in
04:14 45.6 °F 43.7 °F 30.14 in NNW 6.0 mph 2.6 mph 93 % 0.00 in
04:19 45.1 °F 42.9 °F 30.13 in NNW 5.8 mph 1.3 mph 92 % 0.08 in
04:25 45.0 °F 42.8 °F 30.13 in NNW 1.0 mph 0.1 mph 92 % 0.09 in
04:30 44.9 °F 43.0 °F 30.14 in NW 2.3 mph 0.6 mph 93 % 0.09 in
04:35 44.7 °F 42.8 °F 30.13 in Calm     93 % 0.09 in
04:40 44.5 °F 42.6 °F 30.13 in Calm     93 % 0.09 in
04:45 44.3 °F 42.4 °F 30.13 in Calm     93 % 0.09 in
04:50 44.0 °F 42.1 °F 30.13 in Calm     93 % 0.09 in
04:55 43.7 °F 41.8 °F 30.13 in Calm     93 % 0.09 in
05:00 43.3 °F 41.7 °F 30.13 in Calm     94 % 0.09 in
05:05 43.2 °F 41.6 °F 30.13 in Calm     94 % 0.09 in
05:10 42.9 °F 41.3 °F 30.13 in Calm     94 % 0.09 in
05:15 42.7 °F 41.1 °F 30.14 in Calm     94 % 0.05 in
05:20 42.7 °F 41.4 °F 30.14 in Calm     95 % 0.00 in
05:25 42.8 °F 41.5 °F 30.14 in Calm     95 % 0.00 in
05:30 42.9 °F 41.6 °F 30.14 in Calm     95 % 0.00 in
05:35 43.0 °F 41.7 °F 30.14 in Calm     95 % 0.00 in
05:40 43.2 °F 42.1 °F 30.14 in Calm     96 % 0.00 in
05:45 43.2 °F 42.1 °F 30.14 in Calm     96 % 0.00 in
05:50 43.2 °F 41.9 °F 30.14 in Calm     95 % 0.00 in
05:55 43.1 °F 41.8 °F 30.15 in Calm     95 % 0.00 in
06:00 42.9 °F 41.6 °F 30.15 in Calm     95 % 0.00 in
06:05 42.6 °F 41.3 °F 30.15 in Calm     95 % 0.00 in
06:10 42.4 °F 41.1 °F 30.15 in Calm     95 % 0.00 in
06:15 42.0 °F 40.7 °F 30.15 in Calm     95 % 0.00 in
06:20 41.5 °F 40.2 °F 30.15 in Calm     95 % 0.00 in
06:25 41.1 °F 39.8 °F 30.16 in Calm     95 % 0.00 in
06:30 41.0 °F 39.7 °F 30.16 in Calm     95 % 0.00 in
06:35 41.3 °F 40.2 °F 30.16 in Calm     96 % 0.00 in
06:40 41.4 °F 40.3 °F 30.16 in Calm     96 % 0.00 in
06:45 41.5 °F 40.4 °F 30.17 in Calm     96 % 0.00 in
06:50 41.7 °F 40.6 °F 30.17 in Calm     96 % 0.00 in
06:55 41.7 °F 40.6 °F 30.17 in Calm     96 % 0.00 in
07:00 41.9 °F 40.8 °F 30.17 in Calm     96 % 0.00 in
07:05 42.2 °F 41.1 °F 30.17 in Calm     96 % 0.00 in
07:10 42.3 °F 41.2 °F 30.17 in Calm     96 % 0.00 in
07:15 42.4 °F 41.3 °F 30.17 in Calm     96 % 0.00 in
07:20 42.3 °F 41.2 °F 30.17 in Calm     96 % 0.00 in
07:25 42.4 °F 41.3 °F 30.17 in Calm     96 % 0.00 in
07:30 42.6 °F 41.5 °F 30.18 in Calm     96 % 0.00 in
07:35 42.7 °F 41.6 °F 30.18 in Calm     96 % 0.00 in
07:40 42.7 °F 41.6 °F 30.18 in Calm     96 % 0.00 in
07:45 42.7 °F 41.6 °F 30.18 in Calm     96 % 0.00 in
07:50 42.7 °F 41.6 °F 30.18 in Calm     96 % 0.00 in
07:55 42.7 °F 41.6 °F 30.18 in Calm     96 % 0.00 in
08:00 42.8 °F 41.7 °F 30.19 in Calm     96 % 0.00 in
08:05 42.9 °F 41.8 °F 30.19 in Calm     96 % 0.00 in
08:10 43.0 °F 41.9 °F 30.19 in Calm     96 % 0.00 in
08:15 43.3 °F 42.2 °F 30.19 in Calm     96 % 0.00 in
08:20 43.9 °F 42.8 °F 30.19 in Calm     96 % 0.00 in
08:25 44.6 °F 43.8 °F 30.19 in Calm     97 % 0.00 in
08:30 44.5 °F 43.7 °F 30.19 in Calm     97 % 0.00 in
08:35 44.9 °F 44.1 °F 30.20 in Calm     97 % 0.00 in
08:40 45.8 °F 45.0 °F 30.20 in Calm     97 % 0.00 in
08:45 45.6 °F 44.8 °F 30.20 in Calm     97 % 0.00 in
08:50 45.2 °F 44.1 °F 30.20 in West 1.2 mph   96 % 0.00 in
08:55 45.3 °F 44.2 °F 30.21 in Calm     96 % 0.00 in
09:00 45.9 °F 44.8 °F 30.21 in West 1.2 mph   96 % 0.00 in
09:05 46.8 °F 45.7 °F 30.21 in Calm     96 % 0.00 in
09:10 47.4 °F 46.3 °F 30.21 in Calm     96 % 0.00 in
09:15 47.3 °F 46.2 °F 30.21 in NW 1.2 mph   96 % 0.00 in
09:20 47.1 °F 45.7 °F 30.22 in Calm     95 % 0.00 in
09:25 47.2 °F 45.8 °F 30.22 in Calm     95 % 0.00 in
09:30 47.4 °F 45.8 °F 30.22 in NW 1.2 mph 0.3 mph 94 % 0.00 in
09:35 47.5 °F 45.9 °F 30.22 in NNW 1.2 mph   94 % 0.00 in
09:40 47.6 °F 45.4 °F 30.22 in NW 1.2 mph 0.5 mph 92 % 0.00 in
09:45 47.9 °F 45.4 °F 30.23 in Calm     91 % 0.00 in
09:50 48.5 °F 46.0 °F 30.23 in Calm   0.1 mph 91 % 0.00 in
09:55 49.1 °F 45.7 °F 30.23 in WNW 1.2 mph 0.1 mph 88 % 0.00 in
10:00 49.5 °F 45.8 °F 30.23 in NW 1.2 mph 0.8 mph 87 % 0.00 in
10:05 50.0 °F 45.7 °F 30.23 in Calm     85 % 0.00 in
10:10 50.5 °F 46.2 °F 30.23 in West 1.2 mph 0.3 mph 85 % 0.00 in
10:15 50.7 °F 45.4 °F 30.22 in NW 3.5 mph 1.1 mph 82 % 0.00 in
10:20 50.8 °F 45.2 °F 30.23 in NW 2.3 mph 0.6 mph 81 % 0.00 in
10:25 51.1 °F 45.1 °F 30.23 in NW 1.2 mph 0.9 mph 80 % 0.00 in
10:30 51.2 °F 44.9 °F 30.23 in Calm     79 % 0.00 in
10:35 51.6 °F 45.6 °F 30.23 in NW 1.2 mph 0.4 mph 80 % 0.00 in
10:40 51.9 °F 45.6 °F 30.23 in Calm     79 % 0.00 in
10:45 52.4 °F 45.7 °F 30.23 in Calm     78 % 0.00 in
10:50 52.7 °F 46.0 °F 30.23 in Calm     78 % 0.00 in
10:55 53.0 °F 45.6 °F 30.23 in ESE 1.2 mph   76 % 0.00 in
11:00 53.0 °F 45.3 °F 30.23 in NNE 3.5 mph 0.8 mph 75 % 0.00 in
11:05 52.7 °F 44.6 °F 30.23 in ESE 1.2 mph 0.3 mph 74 % 0.00 in
11:10 52.4 °F 44.0 °F 30.23 in WNW 1.2 mph 0.5 mph 73 % 0.00 in
11:15 52.1 °F 44.1 °F 30.23 in Calm     74 % 0.00 in
11:20 52.0 °F 44.3 °F 30.23 in NW 2.0 mph 0.4 mph 75 % 0.00 in
11:25 51.8 °F 44.1 °F 30.23 in NW 3.5 mph 0.5 mph 75 % 0.00 in
11:30 51.7 °F 44.7 °F 30.23 in NW 2.0 mph 0.1 mph 77 % 0.00 in
11:35 51.6 °F 44.6 °F 30.23 in WNW 1.2 mph 0.9 mph 77 % 0.00 in
11:40 51.5 °F 44.2 °F 30.23 in NW 2.3 mph 0.8 mph 76 % 0.00 in
11:45 51.8 °F 44.8 °F 30.22 in North 2.3 mph 1.0 mph 77 % 0.00 in
11:50 52.0 °F 44.7 °F 30.22 in NW 2.3 mph 0.4 mph 76 % 0.00 in
11:55 52.2 °F 44.2 °F 30.22 in NW 3.5 mph 1.9 mph 74 % 0.00 in
12:00 52.4 °F 44.4 °F 30.22 in NNW 1.2 mph   74 % 0.00 in
12:05 52.9 °F 44.8 °F 30.22 in NW 3.5 mph 2.4 mph 74 % 0.00 in
12:10 52.9 °F 44.1 °F 30.21 in NW 4.6 mph 2.4 mph 72 % 0.00 in
12:15 52.9 °F 44.1 °F 30.21 in WNW 3.5 mph 2.2 mph 72 % 0.00 in
12:20 52.7 °F 43.6 °F 30.21 in NW 3.5 mph 1.0 mph 71 % 0.00 in
12:25 52.5 °F 43.7 °F 30.21 in West 4.6 mph 2.5 mph 72 % 0.00 in
12:30 52.2 °F 43.8 °F 30.21 in WNW 5.0 mph 2.1 mph 73 % 0.00 in
12:35 52.0 °F 43.6 °F 30.21 in NNW 3.5 mph 2.1 mph 73 % 0.00 in
12:40 51.9 °F 44.2 °F 30.21 in WNW 3.5 mph 1.4 mph 75 % 0.00 in
12:45 51.9 °F 43.9 °F 30.21 in NNW 3.5 mph 2.2 mph 74 % 0.00 in
12:50 52.0 °F 44.3 °F 30.21 in NW 3.5 mph 1.7 mph 75 % 0.00 in
12:55 52.1 °F 44.4 °F 30.20 in WNW 3.5 mph 0.9 mph 75 % 0.00 in
13:00 52.3 °F 44.3 °F 30.20 in NW 2.3 mph 0.7 mph 74 % 0.00 in
13:05 52.4 °F 44.0 °F 30.20 in NW 3.5 mph 1.3 mph 73 % 0.00 in
13:10 52.7 °F 44.3 °F 30.20 in North 2.3 mph 0.3 mph 73 % 0.00 in
13:15 53.0 °F 44.6 °F 30.20 in WNW 2.3 mph 0.5 mph 73 % 0.00 in
13:20 53.1 °F 43.9 °F 30.19 in NNW 3.5 mph 2.4 mph 71 % 0.00 in
13:25 53.2 °F 43.3 °F 30.19 in NW 3.5 mph 2.1 mph 69 % 0.00 in
13:30 53.7 °F 44.5 °F 30.19 in NW 5.8 mph 4.6 mph 71 % 0.00 in
13:35 54.0 °F 44.4 °F 30.19 in NNW 3.5 mph 1.9 mph 70 % 0.00 in
13:40 54.1 °F 44.5 °F 30.19 in NW 5.8 mph 2.3 mph 70 % 0.00 in
13:45 54.3 °F 44.3 °F 30.19 in NW 4.6 mph 3.5 mph 69 % 0.00 in
13:50 54.1 °F 43.8 °F 30.19 in NW 4.6 mph 3.3 mph 68 % 0.00 in
13:55 54.2 °F 45.0 °F 30.19 in WNW 4.6 mph 3.1 mph 71 % 0.00 in
14:00 54.9 °F 44.9 °F 30.18 in NW 5.8 mph 3.9 mph 69 % 0.00 in
14:05 54.9 °F 44.5 °F 30.18 in NW 2.3 mph 0.6 mph 68 % 0.00 in
14:10 54.7 °F 44.3 °F 30.18 in NW 5.0 mph 2.4 mph 68 % 0.00 in
14:15 54.6 °F 44.6 °F 30.18 in NNW 5.8 mph 3.8 mph 69 % 0.00 in
14:20 54.7 °F 44.7 °F 30.18 in North 3.5 mph 3.2 mph 69 % 0.00 in
14:25 54.8 °F 44.4 °F 30.18 in NW 3.5 mph 2.2 mph 68 % 0.00 in
14:30 55.1 °F 43.9 °F 30.18 in NW 5.8 mph 3.7 mph 66 % 0.00 in
14:35 55.1 °F 43.9 °F 30.18 in NW 8.1 mph 4.5 mph 66 % 0.00 in
14:40 54.5 °F 43.8 °F 30.18 in NW 4.0 mph 2.3 mph 67 % 0.00 in
14:45 54.3 °F 44.0 °F 30.18 in NW 3.5 mph 2.0 mph 68 % 0.00 in
14:50 54.1 °F 44.2 °F 30.18 in NW 3.5 mph 1.4 mph 69 % 0.00 in
14:55 53.9 °F 44.0 °F 30.18 in WNW 4.6 mph 3.2 mph 69 % 0.00 in
15:00 53.8 °F 43.9 °F 30.18 in NW 4.6 mph 3.4 mph 69 % 0.00 in
15:05 53.6 °F 43.7 °F 30.18 in NW 4.6 mph 3.5 mph 69 % 0.00 in
15:10 53.6 °F 43.7 °F 30.18 in NW 4.6 mph 2.9 mph 69 % 0.00 in
15:15 53.7 °F 43.8 °F 30.18 in WNW 3.5 mph 2.4 mph 69 % 0.00 in
15:20 53.9 °F 44.3 °F 30.18 in NNE 3.5 mph 1.4 mph 70 % 0.00 in
15:25 54.0 °F 44.1 °F 30.18 in NNW 3.0 mph 1.3 mph 69 % 0.00 in
15:30 54.2 °F 43.9 °F 30.18 in NW 5.8 mph 3.7 mph 68 % 0.00 in
15:35 54.3 °F 44.0 °F 30.18 in NW 3.5 mph 2.4 mph 68 % 0.00 in
15:40 54.3 °F 44.0 °F 30.18 in North 4.6 mph 2.9 mph 68 % 0.00 in
15:45 54.7 °F 44.3 °F 30.18 in NW 4.6 mph 3.1 mph 68 % 0.00 in
15:50 54.7 °F 44.0 °F 30.18 in WNW 3.5 mph 3.0 mph 67 % 0.00 in
15:55 54.7 °F 44.3 °F 30.18 in NW 4.0 mph 2.4 mph 68 % 0.00 in
16:00 54.7 °F 43.6 °F 30.18 in WNW 4.6 mph 2.1 mph 66 % 0.00 in
16:05 54.7 °F 44.0 °F 30.18 in NNW 6.0 mph 2.9 mph 67 % 0.00 in
16:10 54.5 °F 43.8 °F 30.18 in NNE 3.0 mph 1.6 mph 67 % 0.00 in
16:15 54.3 °F 44.0 °F 30.19 in NW 3.5 mph 1.8 mph 68 % 0.00 in
16:20 54.1 °F 43.8 °F 30.19 in NNW 4.6 mph 2.5 mph 68 % 0.00 in
16:25 53.9 °F 43.2 °F 30.19 in NW 3.5 mph 0.6 mph 67 % 0.00 in
16:30 53.8 °F 44.6 °F 30.19 in NNW 3.5 mph 0.9 mph 71 % 0.00 in
16:35 53.4 °F 45.3 °F 30.19 in Calm     74 % 0.00 in
16:40 52.9 °F 44.8 °F 30.19 in Calm     74 % 0.00 in
16:45 52.6 °F 44.5 °F 30.19 in Calm     74 % 0.00 in
16:50 52.4 °F 44.7 °F 30.19 in Calm     75 % 0.00 in
Park Place, Exeter, Tulare County, California, USA
Compliments of Weather Underground - 2.25 mb